x

Shumagin Islands - 85nm South Of Sand Point, Ak (46075) Wave Buoy

8:50am - Thu 7th May 2015 All times are UTC.

  • Sig Wave height 4.9ft
  • Peak Period 9s
  • Average Period 7s
  • Wind
    7mph, 9mph gusts
  • Sea Temp 43°f
  • Air Temp 41°f
  • Sea Pressure 1007.4mb

More Historic Weather Station data

Upgrade to MSW Pro to gain access to the past 30 days of data for over 8000 Wavebouys and Weather Stations around the globe.

Join Pro

Comparision Forecast

View Surf forecast
   
Thu 05/07 8:50am 5ft 9s 7s 7 9 mph 1007.4mb 43f 41f
7:50am 4.5ft 10s 7s 7 9 mph 1007.6mb 43f 41f
6:50am 5ft 8s 7s 4
mph
1007.6mb 43f 40f
5:50am 5ft 10s 7s 4 7 mph 1007.5mb 43f 41f
4:50am 4.5ft 7s 7s 4 7 mph 1007.3mb 43f 43f
3:50am 5ft 10s 7s 2 4 mph 1007.2mb 43f 43f
2:50am 6ft 10s 7s 2 4 mph 1007.2mb 43f 43f
1:50am 5ft 11s 7s 2
mph
1007.2mb 43f 44f
12:50am 5ft 11s 7s 2 4 mph 1007.5mb 43f 44f
Wed 05/06 11:50pm 5ft 9s 7s 4 7 mph 1007.5mb 43f 43f
10:50pm 5ft 10s 6s 9 11 mph 1007.6mb 43f 44f
9:50pm 5ft 11s 6s 11
mph
1007.7mb 42f 43f
8:50pm 5.5ft 9s 6s 9 11 mph 1007.9mb 42f 43f
7:50pm 6ft 10s 7s 9 13 mph 1008mb 42f 43f
6:50pm 5.5ft 10s 7s 7 9 mph 1008.2mb 42f 42f
5:50pm 5.5ft 10s 6s 9 11 mph 1008.2mb 42f 42f
4:50pm 5.5ft 9s 7s 7
mph
1008.2mb 42f 41f
3:50pm 6ft 10s 7s 7 9 mph 1008.1mb 43f 41f
2:50pm 5.5ft 8s 7s 9 13 mph 1008.2mb 43f 41f
1:50pm 5.5ft 9s 7s 11 13 mph 1008.3mb 43f 41f
12:50pm 6ft 10s 7s 9 13 mph 1008.8mb 43f 42f
11:50am 6ft 10s 6s 9 11 mph 1009.2mb 43f 42f
10:50am 6ft 11s 7s 11 13 mph 1009.8mb 43f 42f
9:50am 7ft 11s 7s 11 13 mph 1010.3mb 43f 42f
8:50am 7ft 9s 7s 11 13 mph 1010.9mb 43f 42f
7:50am 7ft 11s 7s 11
mph
1011.4mb 43f 42f
6:50am 7.5ft 9s 7s 11 13 mph 1011.5mb 43f 41f
5:50am 7ft 11s 7s 11 13 mph 1011.5mb 42f 41f
4:50am 7ft 11s 7s 11 13 mph 1011.4mb 43f 42f
3:50am 5.5ft 9s 6s 13 16 mph 1011.4mb 43f 42f
2:50am 6.5ft 9s 7s 13 16 mph 1011.5mb 43f 43f
1:50am 6ft 10s 7s 11 16 mph 1011.6mb 43f 43f
12:50am 6ft 8s 6s 11 13 mph 1011.8mb 43f 43f
Tue 05/05 11:50pm 6ft 8s 6s 13 18 mph 1011.9mb 43f 43f
10:50pm 6ft 9s 6s 11 16 mph 1011.9mb 43f 44f
9:50pm 6ft 9s 6s 9 11 mph 1011.9mb 42f 43f
8:50pm 7ft 9s 6s 16 18 mph 1011.9mb 42f 43f
7:50pm 6.5ft 8s 6s 11 13 mph 1011.7mb 42f 43f
6:50pm 7ft 9s 6s 9 11 mph 1011mb 42f 44f
5:50pm 7ft 9s 6s 13 18 mph 1010.7mb 42f 42f
4:50pm 7ft 8s 6s 13 16 mph 1010.6mb 42f 42f
3:50pm 7ft 7s 6s 11 13 mph 1010.2mb 42f 41f
2:50pm 7ft 10s 6s 11 13 mph 1009.7mb 42f 41f
1:50pm 7ft 10s 6s 13 16 mph 1009.5mb 42f 41f
12:50pm 7ft 8s 6s 13 16 mph 1009.1mb 42f 41f
11:50am 7ft 10s 6s 13 18 mph 1008.8mb 42f 42f
10:50am 7ft 9s 6s 13 18 mph 1008.7mb 43f 42f
9:50am 7.5ft 9s 7s 11 13 mph 1008.2mb 42f 42f
8:50am 8ft 9s 7s 13 18 mph 1007.8mb 42f 42f
7:50am 9.5ft 10s 7s 16 20 mph 1007.4mb 42f 42f
6:50am 9.5ft 10s 7s 16 18 mph 1006.6mb 42f 41f
5:50am 9.5ft 10s 7s 16 20 mph 1006mb 43f 41f
4:50am 9.5ft 10s 6s 13 16 mph 1005.4mb 43f 42f
3:50am 11ft 9s 6s 20 22 mph 1005.2mb 43f 42f
2:50am 9.5ft 10s 6s 20 25 mph 1005.3mb 43f 41f
1:50am 10ft 11s 6s 22 27 mph 1005.6mb 43f 41f
12:50am 9.5ft 7s 6s 22 27 mph 1006.1mb 43f 41f
Mon 05/04 11:50pm 9ft 7s 6s 22 29 mph 1006.6mb 43f 41f
10:50pm 8ft 6s 5s 22 29 mph 1006.8mb 43f 40f
9:50pm 7ft 6s 5s 25 29 mph 1007.3mb 43f 40f
8:50pm 7ft 6s 5s 25 29 mph 1008.1mb 43f 41f
7:50pm 7ft 6s 5s 22 27 mph 1008.2mb 43f 41f
6:50pm 6.5ft 6s 5s 22 29 mph 1008.8mb 43f 41f
5:50pm 7ft 6s 5s 22 29 mph 1008.9mb 43f 41f
4:50pm 6ft 6s 5s 25 29 mph 1009.2mb 43f 40f
3:50pm 6ft 5s 5s 25 29 mph 1009.2mb 43f 40f
2:50pm 5.5ft 5s 4s 22 29 mph 1009.4mb 43f 41f
1:50pm 5ft 5s 4s 20 25 mph 1010.2mb 43f 41f
12:50pm 5ft 4s 4s 22 27 mph 1010.6mb 43f 41f
11:50am 4.5ft 5s 4s 20 25 mph 1011.1mb 42f 41f
10:50am 4.5ft 8s 4s 20 29 mph 1011.7mb 42f 42f
9:50am 4.5ft 4s 4s 20 25 mph 1012.1mb 42f 42f
8:50am 4.5ft 7s 4s 18 20 mph 1012.7mb 42f 42f
7:50am 4.5ft 7s 4s 20 25 mph 1013.2mb 42f 42f
6:50am 5ft 8s 5s 18 22 mph 1013.8mb 42f 42f
5:50am 5ft 8s 4s 18 22 mph 1014.1mb 42f 42f
4:50am 4.5ft 8s 5s 16 22 mph 1014.2mb 42f 42f
3:50am 5ft 7s 5s 18 20 mph 1014.7mb 42f 42f
2:50am 5ft 7s 5s 16 20 mph 1015.1mb 42f 42f
1:50am 5ft 8s  -  16 20 mph 1015.4mb 42f 43f
12:50am 5ft 8s 5s 13 18 mph 1016mb 42f 43f
Sun 05/03 11:50pm 5.5ft 8s 5s 18 20 mph 1016.5mb 42f 43f
10:50pm 5ft 8s 5s 18 22 mph 1017mb 42f 42f
9:50pm 5ft 7s 5s 18 22 mph 1017.6mb 42f 42f
8:50pm 5.5ft 8s 5s 18 22 mph 1018.1mb 42f 43f
7:50pm 5ft 8s 5s 18 22 mph 1018.5mb 42f 42f
6:50pm 5.5ft 8s 5s 16 20 mph 1018.8mb 42f 41f
5:50pm 6ft 8s 5s 16 18 mph 1019mb 42f 41f
4:50pm 6.5ft 8s 5s 16 20 mph 1019mb 42f 41f
3:50pm 8ft 8s 6s 16 20 mph 1018.7mb 42f 42f
2:50pm 7.5ft 8s 6s 13 18 mph 1018.6mb 42f 42f
1:50pm 7.5ft 8s 6s 13 18 mph 1018.4mb 42f 42f
12:50pm 8ft 8s 6s 13 18 mph 1018.4mb 42f 42f
11:50am 8.5ft 8s 6s 16 18 mph 1018.7mb 42f 42f
10:50am 8ft 8s 6s 16 18 mph 1018.7mb 42f 41f
9:50am 8ft 8s 6s 16 18 mph 1018.8mb 42f 41f